Time;durP1;ratioP1;P1;durP2;ratioP2;P2;SDS_P1;SDS_P2;PMS_P1;PMS_P2;Temp;Humidity;BMP_temperature;BMP_pressure;BME280_temperature;BME280_humidity;BME280_pressure;Samples;Min_cycle;Max_cycle;Signal;HPM_P1;HPM_P2
2021/03/16 00:00:40;;;;;;;20.27;3.33;;;;;;;;;;5037325;28;20202;-67
2021/03/16 00:03:05;;;;;;;14.43;3.43;;;;;;;;;;5032739;28;20208;-67
2021/03/16 00:05:30;;;;;;;17.47;2.97;;;;;;;;;;5033251;28;20181;-67
2021/03/16 00:07:55;;;;;;;13.70;3.00;;;;;;;;;;5050623;28;20221;-66
2021/03/16 00:10:21;;;;;;;14.80;3.07;;;;;;;;;;5032228;28;20201;-66
2021/03/16 00:12:46;;;;;;;17.33;3.17;;;;;;;;;;5035165;28;20173;-68
2021/03/16 00:15:12;;;;;;;21.20;4.47;;;;;;;;;;5039644;28;20223;-65
2021/03/16 00:17:37;;;;;;;16.77;3.83;;;;;;;;;;5032674;28;20189;-67
2021/03/16 00:20:03;;;;;;;9.43;3.10;;;;;;;;;;5042746;28;20262;-69
2021/03/16 00:22:28;;;;;;;15.07;2.90;;;;;;;;;;5044413;28;20245;-66
2021/03/16 00:24:53;;;;;;;12.47;2.60;;;;;;;;;;5048639;28;20253;-66
2021/03/16 00:27:18;;;;;;;19.63;3.30;;;;;;;;;;5051553;28;20539;-68
2021/03/16 00:29:44;;;;;;;24.60;3.33;;;;;;;;;;5053764;28;20198;-66
2021/03/16 00:32:09;;;;;;;13.88;5.05;;;;;;;;;;5049566;28;20193;-66
2021/03/16 00:34:34;;;;;;;21.57;2.90;;;;;;;;;;5042224;28;20659;-66
2021/03/16 00:36:59;;;;;;;9.60;2.70;;;;;;;;;;5049200;28;20195;-66
2021/03/16 00:39:24;;;;;;;15.23;2.63;;;;;;;;;;5048783;28;20201;-66
2021/03/16 00:41:50;;;;;;;9.70;3.60;;;;;;;;;;5050992;28;20182;-66
2021/03/16 00:44:15;;;;;;;14.50;3.33;;;;;;;;;;5047431;28;20247;-67
2021/03/16 00:46:40;;;;;;;12.30;2.67;;;;;;;;;;5038756;28;20181;-69
2021/03/16 00:49:05;;;;;;;20.27;4.97;;;;;;;;;;5044697;28;20189;-68
2021/03/16 00:51:31;;;;;;;17.80;3.23;;;;;;;;;;5037117;28;20568;-68
2021/03/16 00:53:56;;;;;;;13.13;3.03;;;;;;;;;;5047434;28;20184;-69
2021/03/16 00:56:21;;;;;;;17.40;3.80;;;;;;;;;;5050780;28;20182;-68
2021/03/16 00:58:46;;;;;;;15.13;3.10;;;;;;;;;;5053720;28;20178;-67
2021/03/16 01:01:11;;;;;;;17.43;3.33;;;;;;;;;;5045609;28;20295;-66
2021/03/16 01:03:36;;;;;;;14.57;2.57;;;;;;;;;;5048622;28;20197;-67
2021/03/16 01:06:02;;;;;;;13.77;2.80;;;;;;;;;;5045687;28;20255;-67
2021/03/16 01:08:28;;;;;;;20.57;3.77;;;;;;;;;;5046324;28;20219;-65
2021/03/16 01:10:53;;;;;;;16.77;4.43;;;;;;;;;;5051562;28;20247;-66
2021/03/16 01:13:19;;;;;;;20.30;3.90;;;;;;;;;;5053155;28;20185;-66
2021/03/16 01:15:44;;;;;;;9.33;2.70;;;;;;;;;;5051231;28;20185;-66
2021/03/16 01:18:09;;;;;;;20.00;4.33;;;;;;;;;;5045689;28;20189;-66
2021/03/16 01:20:35;;;;;;;7.70;2.43;;;;;;;;;;5052290;28;20271;-66
2021/03/16 01:23:00;;;;;;;10.53;2.83;;;;;;;;;;5045015;28;20615;-66
2021/03/16 01:25:25;;;;;;;12.60;2.60;;;;;;;;;;5053511;28;20174;-67
2021/03/16 01:27:50;;;;;;;16.70;2.43;;;;;;;;;;5050944;28;20173;-67
2021/03/16 01:30:16;;;;;;;11.57;2.97;;;;;;;;;;5052504;28;20567;-67
2021/03/16 01:32:41;;;;;;;12.67;2.97;;;;;;;;;;5051305;28;20194;-69
2021/03/16 01:35:09;;;;;;;14.40;2.60;;;;;;;;;;5052089;28;20185;-68
2021/03/16 01:37:34;;;;;;;13.73;2.30;;;;;;;;;;5048113;28;20577;-68
2021/03/16 01:39:59;;;;;;;15.43;2.57;;;;;;;;;;5049292;28;20198;-66
2021/03/16 01:42:24;;;;;;;12.57;3.20;;;;;;;;;;5053259;28;20178;-67
2021/03/16 01:44:49;;;;;;;10.83;2.60;;;;;;;;;;5050439;28;20611;-67
2021/03/16 01:47:15;;;;;;;17.47;3.10;;;;;;;;;;5048223;28;20607;-67
2021/03/16 01:49:41;;;;;;;12.27;2.50;;;;;;;;;;5052622;28;20189;-66
2021/03/16 01:52:07;;;;;;;13.17;2.67;;;;;;;;;;5049842;28;20200;-65
2021/03/16 01:54:32;;;;;;;12.70;2.10;;;;;;;;;;5051216;28;20339;-66
2021/03/16 01:56:59;;;;;;;10.50;2.20;;;;;;;;;;5048986;28;20562;-66
2021/03/16 01:59:24;;;;;;;14.20;3.07;;;;;;;;;;5054383;28;20216;-66
2021/03/16 02:01:49;;;;;;;9.90;3.87;;;;;;;;;;5047694;28;20173;-66
2021/03/16 02:04:15;;;;;;;12.33;3.37;;;;;;;;;;5050604;28;20213;-66
2021/03/16 02:07:00;;;;;;;19.33;3.47;;;;;;;;;;5048766;28;20205;-67
2021/03/16 02:09:33;;;;;;;20.47;4.43;;;;;;;;;;5050655;28;20503;-67
2021/03/16 02:12:05;;;;;;;16.37;3.17;;;;;;;;;;5035872;28;20659;-67
2021/03/16 02:14:34;;;;;;;13.10;2.63;;;;;;;;;;5046409;28;20546;-66
2021/03/16 02:17:05;;;;;;;17.53;3.47;;;;;;;;;;5040165;28;20192;-66
2021/03/16 02:19:58;;;;;;;13.97;2.97;;;;;;;;;;5047426;28;20193;-67
2021/03/16 02:22:25;;;;;;;16.33;2.93;;;;;;;;;;5048564;28;20181;-66
2021/03/16 02:24:56;;;;;;;18.07;3.77;;;;;;;;;;5049121;28;20184;-66
2021/03/16 02:27:27;;;;;;;14.37;2.73;;;;;;;;;;5050968;28;20181;-66
2021/03/16 02:29:54;;;;;;;11.10;2.73;;;;;;;;;;5045366;28;20198;-67
2021/03/16 02:32:21;;;;;;;14.53;3.83;;;;;;;;;;5044767;28;20197;-66
2021/03/16 02:34:48;;;;;;;19.00;3.70;;;;;;;;;;5050859;28;20170;-66
2021/03/16 02:37:13;;;;;;;15.00;3.10;;;;;;;;;;5047680;28;20190;-66
2021/03/16 02:39:40;;;;;;;12.93;2.80;;;;;;;;;;5049824;28;20251;-67
2021/03/16 02:42:07;;;;;;;13.83;2.77;;;;;;;;;;5050904;28;20170;-67
2021/03/16 02:44:34;;;;;;;14.50;3.33;;;;;;;;;;5048325;28;20213;-69
2021/03/16 02:47:00;;;;;;;16.10;3.57;;;;;;;;;;5048162;28;20610;-67
2021/03/16 02:49:25;;;;;;;11.93;3.33;;;;;;;;;;5047468;28;20213;-67
2021/03/16 02:51:52;;;;;;;12.87;2.90;;;;;;;;;;5049806;28;20181;-66
2021/03/16 02:54:19;;;;;;;16.40;3.00;;;;;;;;;;5051188;28;20651;-67
2021/03/16 02:56:44;;;;;;;20.40;4.17;;;;;;;;;;5049444;28;20603;-67
2021/03/16 02:59:10;;;;;;;20.07;3.73;;;;;;;;;;5046041;28;20201;-66
2021/03/16 03:01:36;;;;;;;14.40;3.50;;;;;;;;;;5048152;28;20186;-66
2021/03/16 03:04:02;;;;;;;23.80;3.97;;;;;;;;;;5042311;28;20213;-65
2021/03/16 03:06:28;;;;;;;18.30;3.83;;;;;;;;;;5049205;28;20268;-66
2021/03/16 03:08:54;;;;;;;12.70;2.97;;;;;;;;;;5048684;28;20197;-66
2021/03/16 03:11:19;;;;;;;14.63;4.50;;;;;;;;;;5050450;28;20178;-67
2021/03/16 03:13:44;;;;;;;19.37;3.60;;;;;;;;;;5047852;28;20190;-65
2021/03/16 03:16:09;;;;;;;10.57;3.00;;;;;;;;;;5048718;28;20660;-67
2021/03/16 03:18:35;;;;;;;21.63;3.00;;;;;;;;;;5045551;28;20181;-66
2021/03/16 03:21:02;;;;;;;21.17;3.90;;;;;;;;;;5050287;28;20200;-66
2021/03/16 03:23:31;;;;;;;14.97;3.53;;;;;;;;;;5043615;28;20198;-67
2021/03/16 03:25:58;;;;;;;15.60;3.00;;;;;;;;;;5050201;28;20174;-66
2021/03/16 03:28:27;;;;;;;10.33;2.97;;;;;;;;;;5048025;28;20181;-69
2021/03/16 03:30:52;;;;;;;15.50;3.57;;;;;;;;;;5051374;28;20196;-68
2021/03/16 03:33:21;;;;;;;16.53;2.97;;;;;;;;;;5048971;28;20268;-68
2021/03/16 03:35:46;;;;;;;17.50;3.13;;;;;;;;;;5050384;28;20170;-68
2021/03/16 03:38:12;;;;;;;19.60;3.50;;;;;;;;;;5049176;28;20174;-68
2021/03/16 03:40:37;;;;;;;11.87;3.20;;;;;;;;;;5047601;28;20202;-68
2021/03/16 03:43:04;;;;;;;16.03;3.50;;;;;;;;;;5048121;28;20197;-68
2021/03/16 03:45:29;;;;;;;22.43;3.63;;;;;;;;;;5050245;28;20181;-69
2021/03/16 03:47:56;;;;;;;25.90;3.90;;;;;;;;;;5047887;28;20258;-69
2021/03/16 03:50:22;;;;;;;12.90;3.40;;;;;;;;;;5048907;28;20204;-69
2021/03/16 03:52:48;;;;;;;24.93;3.73;;;;;;;;;;5047550;28;20177;-68
2021/03/16 03:55:13;;;;;;;14.00;2.77;;;;;;;;;;5048956;28;20212;-68
2021/03/16 03:57:40;;;;;;;11.30;3.10;;;;;;;;;;5045539;28;20666;-68
2021/03/16 04:00:06;;;;;;;16.03;4.27;;;;;;;;;;5050377;28;20193;-68
2021/03/16 04:02:31;;;;;;;17.37;3.50;;;;;;;;;;5045301;28;20178;-69
2021/03/16 04:04:57;;;;;;;14.30;3.90;;;;;;;;;;5050749;28;20689;-68
2021/03/16 04:07:23;;;;;;;21.03;4.10;;;;;;;;;;5048351;28;20436;-68
2021/03/16 04:09:48;;;;;;;15.20;3.77;;;;;;;;;;5047387;28;20201;-68
2021/03/16 04:12:14;;;;;;;19.30;3.87;;;;;;;;;;5042640;28;20186;-68
2021/03/16 04:14:39;;;;;;;16.67;2.90;;;;;;;;;;5046402;28;20184;-69
2021/03/16 04:17:05;;;;;;;18.13;4.90;;;;;;;;;;5038225;28;20682;-69
2021/03/16 04:19:30;;;;;;;13.60;5.77;;;;;;;;;;5037600;28;20276;-68
2021/03/16 04:21:55;;;;;;;16.00;3.90;;;;;;;;;;5037112;28;20178;-68
2021/03/16 04:24:21;;;;;;;27.63;4.43;;;;;;;;;;5040452;28;20205;-69
2021/03/16 04:26:46;;;;;;;21.87;4.97;;;;;;;;;;5047969;28;20169;-68
2021/03/16 04:29:11;;;;;;;18.17;3.40;;;;;;;;;;5048242;28;20678;-69
2021/03/16 04:31:37;;;;;;;19.73;4.47;;;;;;;;;;5047929;28;20197;-68
2021/03/16 04:34:02;;;;;;;20.43;4.07;;;;;;;;;;5048235;28;20238;-68
2021/03/16 04:36:27;;;;;;;15.67;3.00;;;;;;;;;;5047926;28;20219;-69
2021/03/16 04:38:52;;;;;;;20.73;4.03;;;;;;;;;;5050514;28;20307;-68
2021/03/16 04:41:17;;;;;;;19.53;4.50;;;;;;;;;;5046747;28;20655;-67
2021/03/16 04:43:45;;;;;;;22.13;3.10;;;;;;;;;;5050532;28;20217;-68
2021/03/16 04:46:10;;;;;;;26.73;4.23;;;;;;;;;;5049501;28;20174;-68
2021/03/16 04:48:35;;;;;;;14.03;3.47;;;;;;;;;;5053225;28;20185;-69
2021/03/16 04:51:01;;;;;;;19.57;4.40;;;;;;;;;;5050331;28;20613;-68
2021/03/16 04:53:26;;;;;;;27.80;4.30;;;;;;;;;;5050354;28;20188;-69
2021/03/16 04:55:51;;;;;;;17.63;3.80;;;;;;;;;;5051325;28;20708;-69
2021/03/16 04:58:16;;;;;;;33.20;5.50;;;;;;;;;;5051305;28;20184;-68
2021/03/16 05:00:41;;;;;;;15.43;3.07;;;;;;;;;;5051416;28;20697;-68
2021/03/16 05:03:07;;;;;;;24.23;3.77;;;;;;;;;;5045513;28;20218;-68
2021/03/16 05:05:32;;;;;;;18.33;3.33;;;;;;;;;;5046808;28;20234;-67
2021/03/16 05:07:57;;;;;;;17.93;3.17;;;;;;;;;;5050772;28;20257;-68
2021/03/16 05:10:22;;;;;;;13.03;3.50;;;;;;;;;;5049343;28;20306;-68
2021/03/16 05:12:47;;;;;;;24.87;3.93;;;;;;;;;;5048363;28;20181;-68
2021/03/16 05:15:13;;;;;;;23.43;4.63;;;;;;;;;;5051768;28;20182;-68
2021/03/16 05:17:38;;;;;;;19.73;4.40;;;;;;;;;;5050224;28;20265;-68
2021/03/16 05:20:04;;;;;;;20.43;4.67;;;;;;;;;;5051249;28;20232;-68
2021/03/16 05:22:29;;;;;;;21.03;4.10;;;;;;;;;;5050562;28;20174;-68
2021/03/16 05:24:54;;;;;;;26.80;6.17;;;;;;;;;;5049550;28;20548;-68
2021/03/16 05:27:19;;;;;;;19.47;5.30;;;;;;;;;;5052787;28;20174;-67
2021/03/16 05:29:44;;;;;;;12.90;3.33;;;;;;;;;;5051474;28;20220;-68
2021/03/16 05:32:09;;;;;;;15.13;3.20;;;;;;;;;;5044402;28;20627;-68
2021/03/16 05:34:35;;;;;;;20.27;3.70;;;;;;;;;;5052272;28;20252;-68
2021/03/16 05:37:00;;;;;;;18.20;2.93;;;;;;;;;;5052241;28;20268;-67
2021/03/16 05:39:25;;;;;;;19.97;3.73;;;;;;;;;;5053357;28;20592;-68
2021/03/16 05:41:51;;;;;;;16.67;3.80;;;;;;;;;;5049056;28;20793;-67
2021/03/16 05:44:17;;;;;;;21.30;3.53;;;;;;;;;;5045824;28;20202;-68
2021/03/16 05:46:43;;;;;;;17.70;3.37;;;;;;;;;;5047986;28;20192;-67
2021/03/16 05:49:08;;;;;;;26.27;4.40;;;;;;;;;;5053206;28;20182;-68
2021/03/16 05:51:34;;;;;;;19.07;4.23;;;;;;;;;;5046697;28;20189;-68
2021/03/16 05:54:00;;;;;;;18.17;3.93;;;;;;;;;;5052510;28;20196;-68
2021/03/16 05:56:25;;;;;;;20.37;4.17;;;;;;;;;;5050528;28;20185;-68
2021/03/16 05:58:51;;;;;;;26.40;3.57;;;;;;;;;;5050558;28;20260;-67
2021/03/16 06:01:17;;;;;;;12.97;3.53;;;;;;;;;;5037368;28;20189;-68
2021/03/16 06:03:42;;;;;;;18.27;3.60;;;;;;;;;;5028291;28;20206;-68
2021/03/16 06:06:08;;;;;;;19.90;3.93;;;;;;;;;;5051639;28;20181;-68
2021/03/16 06:08:33;;;;;;;20.43;5.43;;;;;;;;;;5051798;28;20190;-68
2021/03/16 06:10:58;;;;;;;15.73;3.50;;;;;;;;;;5049296;28;20205;-68
2021/03/16 06:13:24;;;;;;;18.90;3.63;;;;;;;;;;5047343;28;20189;-67
2021/03/16 06:15:50;;;;;;;21.40;3.37;;;;;;;;;;5046169;28;20542;-68
2021/03/16 06:18:25;;;;;;;19.00;3.47;;;;;;;;;;5032358;28;20188;-68
2021/03/16 06:21:00;;;;;;;15.47;3.47;;;;;;;;;;5043739;28;20258;-67
2021/03/16 06:23:32;;;;;;;22.63;4.17;;;;;;;;;;5050014;28;20220;-68
2021/03/16 06:25:57;;;;;;;19.33;3.43;;;;;;;;;;5044978;28;20173;-66
2021/03/16 06:28:29;;;;;;;17.20;3.30;;;;;;;;;;5064494;28;20255;-68
2021/03/16 06:30:54;;;;;;;18.63;6.50;;;;;;;;;;5049513;28;20198;-68
2021/03/16 06:33:21;;;;;;;23.40;3.97;;;;;;;;;;5048737;28;20243;-67
2021/03/16 06:35:55;;;;;;;17.90;3.83;;;;;;;;;;5051557;28;20178;-67
2021/03/16 06:38:20;;;;;;;21.60;5.27;;;;;;;;;;5034669;28;20192;-67
2021/03/16 06:40:45;;;;;;;20.93;4.10;;;;;;;;;;5046443;28;20198;-65
2021/03/16 06:43:11;;;;;;;21.30;3.40;;;;;;;;;;5045606;28;20236;-69
2021/03/16 06:45:39;;;;;;;20.57;4.60;;;;;;;;;;5050621;28;20273;-67
2021/03/16 06:48:17;;;;;;;14.87;4.00;;;;;;;;;;5052750;28;20527;-68
2021/03/16 06:50:42;;;;;;;20.93;3.77;;;;;;;;;;5043137;28;21807;-67
2021/03/16 06:53:14;;;;;;;19.53;3.50;;;;;;;;;;5051345;28;20685;-67
2021/03/16 06:55:55;;;;;;;19.17;3.30;;;;;;;;;;5040333;28;20189;-67
2021/03/16 06:58:25;;;;;;;14.30;3.57;;;;;;;;;;5045341;28;20186;-66
2021/03/16 07:00:51;;;;;;;15.07;3.27;;;;;;;;;;5042312;28;20225;-66
2021/03/16 07:03:16;;;;;;;21.17;4.47;;;;;;;;;;5040645;28;20198;-67
2021/03/16 07:05:44;;;;;;;23.33;5.87;;;;;;;;;;5045714;28;20194;-67
2021/03/16 07:08:10;;;;;;;15.17;3.20;;;;;;;;;;5043519;28;20257;-66
2021/03/16 07:10:36;;;;;;;16.47;3.37;;;;;;;;;;5043167;28;20206;-66
2021/03/16 07:13:02;;;;;;;16.00;3.60;;;;;;;;;;5042417;28;20178;-66
2021/03/16 07:15:28;;;;;;;17.40;4.67;;;;;;;;;;5043672;28;20203;-66
2021/03/16 07:17:54;;;;;;;15.03;3.57;;;;;;;;;;5039774;28;20201;-66
2021/03/16 07:20:20;;;;;;;20.80;4.00;;;;;;;;;;5041684;28;20206;-67
2021/03/16 07:22:51;;;;;;;13.83;3.20;;;;;;;;;;5040002;28;20217;-66
2021/03/16 07:25:18;;;;;;;15.43;3.33;;;;;;;;;;5038532;28;20189;-67
2021/03/16 07:27:43;;;;;;;13.50;3.37;;;;;;;;;;5038655;28;20191;-67
2021/03/16 07:30:09;;;;;;;19.27;2.93;;;;;;;;;;5040825;28;20193;-66
2021/03/16 07:32:34;;;;;;;20.07;4.33;;;;;;;;;;5050378;28;20281;-67
2021/03/16 07:35:00;;;;;;;24.40;4.13;;;;;;;;;;5051426;28;20193;-67
2021/03/16 07:37:25;;;;;;;20.07;3.73;;;;;;;;;;5043908;28;20550;-67
2021/03/16 07:39:51;;;;;;;20.83;2.90;;;;;;;;;;5037414;28;20197;-67
2021/03/16 07:42:16;;;;;;;18.87;2.97;;;;;;;;;;5037340;28;20176;-67
2021/03/16 07:44:42;;;;;;;17.63;3.40;;;;;;;;;;5034349;28;20205;-67
2021/03/16 07:47:08;;;;;;;25.07;5.80;;;;;;;;;;5038241;28;20256;-66
2021/03/16 07:49:34;;;;;;;11.43;4.20;;;;;;;;;;5037690;28;21032;-67
2021/03/16 07:51:59;;;;;;;16.03;3.67;;;;;;;;;;5035840;28;20242;-67
2021/03/16 07:54:38;;;;;;;15.93;3.27;;;;;;;;;;5041223;28;20187;-66
2021/03/16 07:57:04;;;;;;;17.53;2.97;;;;;;;;;;5041728;28;20319;-66
2021/03/16 07:59:33;;;;;;;15.60;3.63;;;;;;;;;;5038889;28;20263;-67
2021/03/16 08:01:58;;;;;;;13.17;3.77;;;;;;;;;;5035450;28;20186;-67
2021/03/16 08:04:36;;;;;;;17.17;4.10;;;;;;;;;;5036365;28;20206;-67
2021/03/16 08:07:03;;;;;;;17.90;3.43;;;;;;;;;;5035375;28;20283;-67
2021/03/16 08:09:29;;;;;;;19.37;3.60;;;;;;;;;;5037988;28;20228;-65
2021/03/16 08:11:54;;;;;;;21.70;3.27;;;;;;;;;;5035507;28;20206;-65
2021/03/16 08:14:27;;;;;;;19.93;3.30;;;;;;;;;;5038357;28;20194;-67
2021/03/16 08:16:52;;;;;;;13.77;2.63;;;;;;;;;;5036174;28;20174;-67
2021/03/16 08:19:35;;;;;;;21.53;3.33;;;;;;;;;;5039741;28;20210;-67
2021/03/16 08:22:00;;;;;;;12.90;2.90;;;;;;;;;;5037634;28;20709;-67
2021/03/16 08:24:39;;;;;;;15.93;3.53;;;;;;;;;;5052034;28;20201;-67
2021/03/16 08:27:07;;;;;;;17.00;2.80;;;;;;;;;;5046167;28;20182;-67
2021/03/16 08:29:33;;;;;;;16.73;3.73;;;;;;;;;;5050531;28;20223;-68
2021/03/16 08:31:59;;;;;;;14.83;3.50;;;;;;;;;;5052808;28;20647;-67
2021/03/16 08:34:24;;;;;;;18.30;3.63;;;;;;;;;;5051705;28;20192;-67
2021/03/16 08:36:50;;;;;;;24.63;3.27;;;;;;;;;;5041948;28;20281;-66
2021/03/16 08:39:20;;;;;;;25.43;3.23;;;;;;;;;;5045161;28;20201;-66
2021/03/16 08:42:11;;;;;;;19.47;4.07;;;;;;;;;;5048347;28;20562;-67
2021/03/16 08:44:40;;;;;;;24.47;4.00;;;;;;;;;;5052080;28;20213;-67
2021/03/16 08:47:12;;;;;;;12.87;2.60;;;;;;;;;;5051194;28;20195;-66
2021/03/16 08:49:39;;;;;;;10.40;2.90;;;;;;;;;;5031797;28;20688;-67
2021/03/16 08:52:04;;;;;;;14.67;2.60;;;;;;;;;;5033128;28;20546;-66
2021/03/16 08:54:29;;;;;;;14.30;2.67;;;;;;;;;;5028127;28;20181;-67
2021/03/16 08:56:55;;;;;;;11.93;2.60;;;;;;;;;;5031658;28;20182;-66
2021/03/16 08:59:20;;;;;;;12.20;3.03;;;;;;;;;;5028697;28;20221;-65
2021/03/16 09:01:46;;;;;;;11.47;2.57;;;;;;;;;;5028560;28;20185;-67
2021/03/16 09:04:12;;;;;;;18.17;4.00;;;;;;;;;;5035490;28;20189;-67
2021/03/16 09:06:37;;;;;;;14.67;3.30;;;;;;;;;;5039961;28;20724;-66
2021/03/16 09:09:03;;;;;;;17.83;2.90;;;;;;;;;;5030756;28;20182;-67
2021/03/16 09:11:29;;;;;;;14.60;2.90;;;;;;;;;;5032540;28;20174;-66
2021/03/16 09:14:05;;;;;;;9.50;2.60;;;;;;;;;;5036021;28;20615;-68
2021/03/16 09:16:30;;;;;;;10.70;2.43;;;;;;;;;;5039305;28;20590;-67
2021/03/16 09:18:55;;;;;;;9.73;2.90;;;;;;;;;;5051099;28;20185;-68
2021/03/16 09:21:21;;;;;;;14.00;2.57;;;;;;;;;;5044121;28;20166;-68
2021/03/16 09:23:46;;;;;;;12.43;2.40;;;;;;;;;;5031632;28;20190;-67
2021/03/16 09:26:11;;;;;;;11.90;2.60;;;;;;;;;;5030734;28;20213;-68
2021/03/16 09:28:36;;;;;;;12.33;2.87;;;;;;;;;;5030899;28;20178;-68
2021/03/16 09:31:01;;;;;;;9.73;1.90;;;;;;;;;;5030872;28;20604;-68
2021/03/16 09:33:27;;;;;;;14.93;2.93;;;;;;;;;;5036270;28;20189;-68
2021/03/16 09:35:58;;;;;;;10.90;2.10;;;;;;;;;;5047359;28;20186;-67
2021/03/16 09:38:24;;;;;;;14.13;2.53;;;;;;;;;;5037998;28;20275;-67
2021/03/16 09:40:49;;;;;;;6.30;1.30;;;;;;;;;;5048232;28;20290;-67
2021/03/16 09:43:25;;;;;;;7.83;1.77;;;;;;;;;;5034107;28;20237;-68
2021/03/16 09:45:52;;;;;;;3.87;1.40;;;;;;;;;;5029893;28;20216;-67
2021/03/16 09:48:17;;;;;;;6.27;1.60;;;;;;;;;;5026701;28;20839;-68
2021/03/16 09:50:44;;;;;;;9.57;2.50;;;;;;;;;;5030748;28;20194;-67
2021/03/16 09:53:14;;;;;;;11.43;2.63;;;;;;;;;;5026883;28;20186;-67
2021/03/16 09:55:40;;;;;;;9.37;1.40;;;;;;;;;;5029925;28;20170;-68
2021/03/16 09:58:05;;;;;;;9.60;2.43;;;;;;;;;;5039042;28;20177;-68
2021/03/16 10:00:31;;;;;;;6.85;2.00;;;;;;;;;;5049279;28;20249;-68
2021/03/16 10:03:22;;;;;;;4.20;1.57;;;;;;;;;;5036094;28;20209;-67
2021/03/16 10:05:48;;;;;;;4.67;1.40;;;;;;;;;;5026379;28;20192;-67
2021/03/16 10:08:22;;;;;;;9.63;2.53;;;;;;;;;;5024328;28;20178;-68
2021/03/16 10:10:48;;;;;;;4.07;1.60;;;;;;;;;;5032645;28;20580;-68
2021/03/16 10:13:13;;;;;;;8.70;1.70;;;;;;;;;;5043193;28;20181;-68
2021/03/16 10:15:43;;;;;;;6.67;1.30;;;;;;;;;;5031265;28;20201;-66
2021/03/16 10:18:09;;;;;;;6.97;1.80;;;;;;;;;;5024088;28;22140;-67
2021/03/16 10:20:35;;;;;;;6.80;1.40;;;;;;;;;;5045486;28;20204;-68
2021/03/16 10:23:04;;;;;;;9.17;1.90;;;;;;;;;;5025589;28;20202;-68
2021/03/16 10:25:31;;;;;;;7.07;1.40;;;;;;;;;;5025054;28;20196;-68
2021/03/16 10:28:00;;;;;;;7.10;2.20;;;;;;;;;;5032100;28;20733;-68
2021/03/16 10:30:33;;;;;;;5.00;1.63;;;;;;;;;;5039508;28;20190;-68
2021/03/16 10:32:58;;;;;;;5.90;1.00;;;;;;;;;;5023131;28;20229;-67
2021/03/16 10:35:24;;;;;;;5.10;1.93;;;;;;;;;;5024585;28;20293;-68
2021/03/16 10:37:49;;;;;;;4.80;1.00;;;;;;;;;;5025560;28;20507;-68
2021/03/16 10:40:15;;;;;;;4.27;1.53;;;;;;;;;;5022956;28;20587;-69
2021/03/16 10:42:40;;;;;;;4.27;1.17;;;;;;;;;;5024777;28;20186;-68
2021/03/16 10:45:06;;;;;;;15.00;3.83;;;;;;;;;;5022138;28;20177;-68
2021/03/16 10:47:31;;;;;;;9.17;1.67;;;;;;;;;;5031038;28;20626;-68
2021/03/16 10:49:56;;;;;;;7.30;1.33;;;;;;;;;;5025658;28;20198;-68
2021/03/16 10:52:21;;;;;;;5.37;1.70;;;;;;;;;;5028521;28;20180;-68
2021/03/16 10:54:47;;;;;;;6.43;1.70;;;;;;;;;;5029131;28;20178;-67
2021/03/16 10:57:12;;;;;;;7.20;2.27;;;;;;;;;;5027906;28;20178;-68
2021/03/16 10:59:37;;;;;;;8.17;1.60;;;;;;;;;;5023184;28;20208;-67
2021/03/16 11:02:02;;;;;;;8.77;2.60;;;;;;;;;;5026567;28;20189;-68
2021/03/16 11:04:28;;;;;;;10.47;1.70;;;;;;;;;;5023822;28;20220;-68
2021/03/16 11:06:53;;;;;;;8.67;1.93;;;;;;;;;;5027419;28;20620;-68
2021/03/16 11:09:18;;;;;;;7.87;2.23;;;;;;;;;;5022903;28;20214;-67
2021/03/16 11:11:43;;;;;;;6.80;1.67;;;;;;;;;;5028620;28;20201;-69
2021/03/16 11:14:09;;;;;;;9.33;1.67;;;;;;;;;;5032599;28;20182;-67
2021/03/16 11:16:34;;;;;;;6.70;1.30;;;;;;;;;;5023926;28;20296;-69
2021/03/16 11:18:59;;;;;;;7.03;1.77;;;;;;;;;;5023792;28;20194;-66
2021/03/16 11:21:25;;;;;;;8.93;1.77;;;;;;;;;;5026575;28;20209;-68
2021/03/16 11:23:50;;;;;;;9.37;1.60;;;;;;;;;;5026988;28;20205;-67
2021/03/16 11:26:16;;;;;;;5.17;1.53;;;;;;;;;;5028242;28;20713;-67
2021/03/16 11:28:41;;;;;;;3.63;1.50;;;;;;;;;;5023194;28;20643;-68
2021/03/16 11:31:06;;;;;;;3.93;1.40;;;;;;;;;;5030100;28;20562;-67
2021/03/16 11:33:31;;;;;;;6.07;1.50;;;;;;;;;;5023750;28;20193;-67
2021/03/16 11:35:57;;;;;;;4.97;1.33;;;;;;;;;;5024936;28;20195;-67
2021/03/16 11:38:22;;;;;;;16.10;1.37;;;;;;;;;;5023441;28;20190;-66
2021/03/16 11:40:48;;;;;;;4.33;1.30;;;;;;;;;;5027859;28;20202;-69
2021/03/16 11:43:13;;;;;;;3.13;1.17;;;;;;;;;;5024542;28;20268;-68
2021/03/16 11:45:39;;;;;;;7.13;1.47;;;;;;;;;;5023154;28;20221;-66
2021/03/16 11:48:05;;;;;;;5.00;1.47;;;;;;;;;;5023055;28;20192;-66
2021/03/16 11:50:30;;;;;;;3.07;1.53;;;;;;;;;;5025395;28;20190;-65
2021/03/16 11:52:55;;;;;;;8.70;1.83;;;;;;;;;;5025528;28;20316;-68
2021/03/16 11:55:20;;;;;;;1.87;1.20;;;;;;;;;;5027826;28;20614;-67
2021/03/16 11:57:45;;;;;;;3.77;1.30;;;;;;;;;;5027153;28;20181;-66
2021/03/16 12:00:11;;;;;;;4.87;1.37;;;;;;;;;;5028385;28;20193;-66
2021/03/16 12:02:36;;;;;;;4.67;1.20;;;;;;;;;;5031822;28;20184;-66
2021/03/16 12:05:02;;;;;;;5.93;1.33;;;;;;;;;;5026229;28;20216;-66
2021/03/16 12:07:28;;;;;;;7.17;2.27;;;;;;;;;;5032441;28;20271;-66
2021/03/16 12:09:53;;;;;;;3.93;1.37;;;;;;;;;;5027305;28;20208;-66
2021/03/16 12:12:19;;;;;;;3.87;1.33;;;;;;;;;;5028265;28;20185;-66
2021/03/16 12:14:44;;;;;;;3.77;1.70;;;;;;;;;;5036037;28;20351;-65
2021/03/16 12:17:11;;;;;;;4.20;1.40;;;;;;;;;;5034124;28;20186;-66
2021/03/16 12:19:36;;;;;;;5.37;1.30;;;;;;;;;;5026863;28;20198;-67
2021/03/16 12:22:01;;;;;;;3.03;1.27;;;;;;;;;;5046702;28;20185;-66
2021/03/16 12:24:26;;;;;;;4.00;2.07;;;;;;;;;;5029386;28;20927;-66
2021/03/16 12:26:51;;;;;;;7.87;1.73;;;;;;;;;;5044243;28;20185;-67
2021/03/16 12:29:17;;;;;;;7.90;1.77;;;;;;;;;;5039505;28;20197;-68
2021/03/16 12:31:42;;;;;;;5.87;1.23;;;;;;;;;;5037847;28;20707;-67
2021/03/16 12:34:07;;;;;;;3.30;1.40;;;;;;;;;;5024544;28;20190;-68
2021/03/16 12:36:32;;;;;;;4.67;1.70;;;;;;;;;;5027277;28;20672;-67
2021/03/16 12:38:57;;;;;;;3.60;1.50;;;;;;;;;;5027613;28;20295;-67
2021/03/16 12:41:23;;;;;;;3.03;1.20;;;;;;;;;;5028614;28;20205;-65
2021/03/16 12:43:48;;;;;;;2.40;1.23;;;;;;;;;;5026998;28;20202;-66
2021/03/16 12:46:13;;;;;;;2.77;1.50;;;;;;;;;;5032054;28;20186;-67
2021/03/16 12:48:38;;;;;;;5.73;1.90;;;;;;;;;;5026926;28;20243;-65
2021/03/16 12:51:03;;;;;;;3.63;1.90;;;;;;;;;;5029857;28;20766;-67
2021/03/16 12:53:29;;;;;;;3.87;2.40;;;;;;;;;;5026504;28;20196;-66
2021/03/16 12:55:54;;;;;;;7.23;1.63;;;;;;;;;;5029542;28;21196;-66
2021/03/16 12:58:19;;;;;;;2.80;1.30;;;;;;;;;;5042488;28;20186;-67
2021/03/16 13:00:44;;;;;;;4.13;1.57;;;;;;;;;;5042885;28;20289;-66
2021/03/16 13:03:09;;;;;;;7.13;1.70;;;;;;;;;;5023512;28;20212;-66
2021/03/16 13:05:35;;;;;;;4.37;1.37;;;;;;;;;;5027529;28;20714;-66
2021/03/16 13:08:00;;;;;;;2.57;1.20;;;;;;;;;;5028429;28;20170;-66
2021/03/16 13:10:25;;;;;;;3.03;1.33;;;;;;;;;;5027213;28;20706;-66
2021/03/16 13:12:50;;;;;;;3.90;1.40;;;;;;;;;;5026283;28;20658;-65
2021/03/16 13:15:15;;;;;;;3.73;1.47;;;;;;;;;;5032879;28;20414;-67
2021/03/16 13:17:40;;;;;;;3.17;1.67;;;;;;;;;;5026920;28;20182;-66
2021/03/16 13:20:07;;;;;;;3.50;1.17;;;;;;;;;;5024522;28;20194;-67
2021/03/16 13:22:32;;;;;;;5.10;1.20;;;;;;;;;;5044099;28;20169;-66
2021/03/16 13:25:00;;;;;;;4.43;2.10;;;;;;;;;;5048644;28;20201;-66
2021/03/16 13:27:25;;;;;;;3.37;1.20;;;;;;;;;;5032213;28;20181;-67
2021/03/16 13:29:50;;;;;;;2.57;1.03;;;;;;;;;;5035060;28;20201;-67
2021/03/16 13:32:15;;;;;;;2.83;1.23;;;;;;;;;;5025543;28;20190;-69
2021/03/16 13:34:41;;;;;;;1.60;0.97;;;;;;;;;;5030777;28;20186;-67
2021/03/16 13:37:06;;;;;;;2.87;1.10;;;;;;;;;;5026629;28;20189;-66
2021/03/16 13:39:32;;;;;;;2.13;0.90;;;;;;;;;;5024659;28;20198;-68
2021/03/16 13:41:57;;;;;;;3.67;1.20;;;;;;;;;;5034407;28;20235;-67
2021/03/16 13:44:22;;;;;;;5.20;1.50;;;;;;;;;;5034304;28;20281;-66
2021/03/16 13:46:47;;;;;;;3.90;1.33;;;;;;;;;;5027484;28;20174;-69
2021/03/16 13:49:12;;;;;;;1.73;1.00;;;;;;;;;;5026978;28;20252;-66
2021/03/16 13:51:38;;;;;;;5.03;1.30;;;;;;;;;;5027175;28;20183;-65
2021/03/16 13:54:03;;;;;;;5.90;1.40;;;;;;;;;;5030150;28;20189;-65
2021/03/16 13:56:28;;;;;;;2.70;1.23;;;;;;;;;;5032221;28;20193;-69
2021/03/16 13:58:53;;;;;;;2.23;1.70;;;;;;;;;;5030160;28;20942;-65
2021/03/16 14:01:19;;;;;;;5.33;1.33;;;;;;;;;;5029346;28;20186;-66
2021/03/16 14:03:44;;;;;;;3.70;1.63;;;;;;;;;;5029392;28;20696;-65
2021/03/16 14:06:09;;;;;;;3.53;1.13;;;;;;;;;;5034887;28;20296;-66
2021/03/16 14:08:34;;;;;;;4.43;1.13;;;;;;;;;;5040933;28;20249;-69
2021/03/16 14:10:59;;;;;;;4.03;1.30;;;;;;;;;;5028919;28;21889;-69
2021/03/16 14:13:25;;;;;;;3.07;1.60;;;;;;;;;;5030370;28;20189;-67
2021/03/16 14:15:50;;;;;;;3.57;1.30;;;;;;;;;;5031766;28;20611;-69
2021/03/16 14:18:15;;;;;;;3.60;1.20;;;;;;;;;;5027894;28;20269;-68
2021/03/16 14:20:40;;;;;;;2.77;1.17;;;;;;;;;;5034877;28;20245;-69
2021/03/16 14:23:05;;;;;;;2.00;1.10;;;;;;;;;;5024937;28;20222;-69
2021/03/16 14:25:30;;;;;;;2.17;1.17;;;;;;;;;;5026727;28;20596;-69
2021/03/16 14:27:56;;;;;;;2.27;1.10;;;;;;;;;;5029223;28;20644;-68